createdAt,value
2022-10-02T07:38:54.933Z,2.25
2022-10-02T07:41:42.640Z,3.90
2022-10-02T07:44:27.147Z,3.25
2022-10-02T07:47:12.305Z,2.60
2022-10-02T07:49:50.918Z,4.50
2022-10-02T07:52:37.333Z,4.75
2022-10-02T07:55:32.800Z,4.20
2022-10-02T07:58:05.733Z,4.32
2022-10-02T08:00:40.839Z,13.25
2022-10-02T08:03:32.675Z,18.80
2022-10-02T08:06:06.290Z,8.68
2022-10-02T08:08:41.667Z,2.95
2022-10-02T08:11:21.624Z,2.80
2022-10-02T08:14:01.305Z,2.95
2022-10-02T08:16:37.186Z,2.83
2022-10-02T08:19:16.252Z,3.97
2022-10-02T08:21:56.089Z,5.18
2022-10-02T08:24:37.048Z,4.50
2022-10-02T08:27:13.271Z,5.10
2022-10-02T08:29:53.381Z,3.72
2022-10-02T08:32:32.468Z,3.65
2022-10-02T08:35:15.032Z,6.22
2022-10-02T08:38:07.065Z,4.97
2022-10-02T08:40:42.809Z,2.47
2022-10-02T08:43:34.099Z,2.63
2022-10-02T08:46:07.132Z,4.05
2022-10-02T08:48:57.006Z,2.17
2022-10-02T08:51:53.063Z,3.05
2022-10-02T08:54:45.564Z,2.35
2022-10-02T08:57:27.885Z,4.15
2022-10-02T09:00:19.186Z,2.15
2022-10-02T09:02:54.802Z,3.43
2022-10-02T09:05:40.927Z,2.97
2022-10-02T09:08:24.078Z,3.15
2022-10-02T09:11:11.969Z,2.65
2022-10-02T09:13:50.746Z,3.95
2022-10-02T09:16:37.547Z,2.22
2022-10-02T09:19:21.086Z,1.98
2022-10-02T09:21:56.481Z,1.70
2022-10-02T09:24:35.288Z,4.93
2022-10-02T09:27:20.392Z,2.03
2022-10-02T09:29:59.415Z,2.53
2022-10-02T09:32:43.465Z,4.13
2022-10-02T09:35:35.029Z,3.47
2022-10-02T09:38:30.429Z,4.25
2022-10-02T09:41:24.679Z,5.15
2022-10-02T09:44:03.885Z,3.50
2022-10-02T09:46:37.166Z,3.25
2022-10-02T09:49:16.432Z,2.47
2022-10-02T09:51:49.391Z,2.47
2022-10-02T09:54:36.972Z,4.35
2022-10-02T09:57:32.076Z,4.25
2022-10-02T10:00:23.286Z,1.90
2022-10-02T10:03:15.199Z,3.40
2022-10-02T10:05:58.716Z,5.00
2022-10-02T10:08:40.830Z,3.57
2022-10-02T10:11:49.206Z,2.25
2022-10-02T10:14:30.850Z,3.80
2022-10-02T10:17:12.355Z,2.78
2022-10-02T10:19:54.300Z,2.00
2022-10-02T10:22:43.386Z,3.33
2022-10-02T10:25:28.552Z,4.05
2022-10-02T10:28:19.742Z,2.80
2022-10-02T10:31:10.463Z,3.20
2022-10-02T10:33:58.187Z,2.85
2022-10-02T10:36:49.185Z,2.20
2022-10-02T10:39:27.075Z,3.85
2022-10-02T10:42:01.737Z,5.00
2022-10-02T10:44:40.288Z,3.78
2022-10-02T10:47:39.434Z,2.85
2022-10-02T10:50:14.761Z,3.45
2022-10-02T10:53:05.940Z,1.95
2022-10-02T10:55:53.373Z,2.05
2022-10-02T10:58:45.660Z,3.20
2022-10-02T11:01:19.583Z,3.65
2022-10-02T11:04:07.149Z,3.92
2022-10-02T11:06:45.924Z,1.60
2022-10-02T11:09:51.394Z,3.15
2022-10-02T11:12:23.865Z,3.23
2022-10-02T11:15:20.090Z,1.77
2022-10-02T11:17:52.538Z,3.17
2022-10-02T11:20:34.991Z,5.03
2022-10-02T11:23:27.672Z,2.70
2022-10-02T11:26:16.294Z,3.08
2022-10-02T11:29:11.817Z,2.10
2022-10-02T11:31:47.400Z,3.85
2022-10-02T11:34:40.673Z,3.50
2022-10-02T11:37:40.049Z,3.05
2022-10-02T11:40:18.213Z,3.50
2022-10-02T11:43:11.803Z,2.30
2022-10-02T11:45:55.567Z,2.97
2022-10-02T11:48:39.480Z,8.10
2022-10-02T11:51:14.747Z,2.05
2022-10-02T11:53:47.607Z,3.58
2022-10-02T11:56:32.114Z,1.75
2022-10-02T11:59:29.979Z,1.88
2022-10-02T12:02:21.070Z,3.42
2022-10-02T12:05:12.584Z,3.17
2022-10-02T12:07:50.601Z,1.52
2022-10-02T12:10:44.410Z,3.08
2022-10-02T12:13:55.958Z,2.70
2022-10-02T12:17:01.227Z,3.05
2022-10-02T12:20:11.307Z,4.60
2022-10-02T12:23:11.214Z,2.70
2022-10-02T12:26:14.257Z,2.70
2022-10-02T12:28:56.914Z,11.23
2022-10-02T12:31:30.222Z,7.38
2022-10-02T12:34:21.619Z,2.97
2022-10-02T12:37:00.506Z,2.10
2022-10-02T12:39:40.506Z,2.63
2022-10-02T12:42:22.103Z,1.98
2022-10-02T12:44:59.572Z,4.15
2022-10-02T12:47:49.825Z,3.63
2022-10-02T12:50:33.930Z,2.67
2022-10-02T12:53:09.382Z,1.95
2022-10-02T12:56:17.851Z,2.95
2022-10-02T12:58:54.241Z,2.35
2022-10-02T13:01:33.219Z,4.60
2022-10-02T13:04:24.313Z,3.67
2022-10-02T13:07:17.177Z,1.75
2022-10-02T13:10:05.856Z,6.10
2022-10-02T13:12:38.775Z,4.70
2022-10-02T13:15:12.112Z,4.55
2022-10-02T13:18:07.977Z,7.63
2022-10-02T13:21:06.510Z,2.20
2022-10-02T13:23:52.338Z,5.05
2022-10-02T13:26:43.744Z,4.38
2022-10-02T13:29:22.564Z,3.08
2022-10-02T13:31:55.329Z,3.38
2022-10-02T13:34:28.221Z,2.83
2022-10-02T13:37:28.614Z,3.50
2022-10-02T13:40:19.888Z,1.27
2022-10-02T13:42:54.614Z,3.27
2022-10-02T13:45:31.426Z,2.80
2022-10-02T13:48:10.236Z,1.00
2022-10-02T13:50:46.974Z,2.90
2022-10-02T13:53:38.318Z,4.22
2022-10-02T13:56:22.818Z,1.70
2022-10-02T13:59:16.125Z,2.87
2022-10-02T14:02:02.763Z,1.50
2022-10-02T14:04:43.987Z,2.85
2022-10-02T14:07:24.257Z,2.65
2022-10-02T14:10:00.356Z,2.17
2022-10-02T14:12:38.793Z,3.63
2022-10-02T14:15:11.200Z,5.60
2022-10-02T14:18:03.096Z,1.48
2022-10-02T14:20:55.652Z,2.72
2022-10-02T14:23:31.650Z,2.53
2022-10-02T14:26:08.763Z,2.13
2022-10-02T14:28:45.015Z,2.33
2022-10-02T14:31:20.792Z,3.35
2022-10-02T14:34:14.297Z,1.77
2022-10-02T14:36:52.896Z,1.55
2022-10-02T14:39:31.907Z,5.18
2022-10-02T14:42:22.809Z,5.47
2022-10-02T14:45:12.686Z,28.05
2022-10-02T14:48:12.679Z,15.70
2022-10-02T14:50:57.819Z,15.02
2022-10-02T14:53:30.733Z,11.65
2022-10-02T14:56:24.681Z,17.20
2022-10-02T14:59:15.823Z,34.35
2022-10-02T15:02:00.664Z,26.20
2022-10-02T15:04:33.483Z,26.50
2022-10-02T15:07:08.405Z,29.80
2022-10-02T15:09:53.209Z,22.70
2022-10-02T15:12:31.816Z,20.38
2022-10-02T15:15:07.420Z,10.20
2022-10-02T15:18:04.736Z,7.90
2022-10-02T15:20:49.266Z,8.38
2022-10-02T15:23:41.437Z,5.78
2022-10-02T15:26:26.220Z,9.95
2022-10-02T15:28:59.359Z,8.02
2022-10-02T15:31:44.582Z,5.80
2022-10-02T15:34:30.497Z,8.18
2022-10-02T15:37:06.514Z,9.07
2022-10-02T15:39:42.663Z,5.83
2022-10-02T15:42:48.117Z,5.00
2022-10-02T15:45:42.019Z,7.60
2022-10-02T15:48:20.107Z,9.23
2022-10-02T15:50:53.209Z,6.88
2022-10-02T15:53:31.961Z,7.15
2022-10-02T15:56:17.600Z,23.50
2022-10-02T15:59:08.664Z,46.40
2022-10-02T16:02:00.888Z,82.07
2022-10-02T16:04:38.720Z,42.25
2022-10-02T16:07:11.737Z,25.08
2022-10-02T16:10:02.284Z,16.83
2022-10-02T16:12:41.311Z,10.02
2022-10-02T16:15:13.945Z,7.75
2022-10-02T16:17:49.654Z,8.48
2022-10-02T16:20:41.251Z,11.00
2022-10-02T16:23:36.662Z,9.52
2022-10-02T16:26:27.681Z,14.00
2022-10-02T16:29:08.284Z,14.73
2022-10-02T16:31:40.929Z,11.10
2022-10-02T16:34:15.472Z,16.77
2022-10-02T16:36:52.672Z,17.55
2022-10-02T16:39:46.586Z,14.60
2022-10-02T16:42:42.353Z,13.32
2022-10-02T16:45:35.437Z,27.70
2022-10-02T16:48:12.482Z,5.22
2022-10-02T16:51:08.466Z,8.20
2022-10-02T16:54:02.735Z,15.40
2022-10-02T16:56:54.423Z,13.00
2022-10-02T16:59:39.268Z,13.83
2022-10-02T17:02:33.917Z,3.42
2022-10-02T17:05:06.454Z,3.85
2022-10-02T17:08:11.783Z,4.50
2022-10-02T17:10:47.181Z,3.50
2022-10-02T17:13:38.839Z,15.90
2022-10-02T17:16:21.499Z,9.13
2022-10-02T17:18:58.359Z,6.68
2022-10-02T17:21:46.529Z,3.57
2022-10-02T17:24:33.374Z,4.00
2022-10-02T17:27:05.939Z,5.40
2022-10-02T17:30:11.026Z,2.60
2022-10-02T17:32:46.407Z,5.75
2022-10-02T17:35:25.965Z,4.97
2022-10-02T17:38:09.936Z,4.00
2022-10-02T17:40:42.894Z,2.95
2022-10-02T17:43:18.469Z,2.60
2022-10-02T17:46:03.449Z,3.28
2022-10-02T17:48:46.319Z,2.72
2022-10-02T17:51:52.385Z,3.88
2022-10-02T17:55:06.884Z,3.25
2022-10-02T17:57:51.980Z,2.80
2022-10-02T18:00:26.638Z,3.10
2022-10-02T18:03:15.674Z,3.58
2022-10-02T18:05:51.349Z,3.15
2022-10-02T18:08:28.519Z,3.72
2022-10-02T18:11:03.479Z,2.45
2022-10-02T18:13:39.740Z,3.47
2022-10-02T18:16:32.760Z,3.38
2022-10-02T18:19:27.993Z,2.10
2022-10-02T18:22:07.761Z,3.35
2022-10-02T18:24:46.503Z,4.13
2022-10-02T18:27:38.097Z,2.55
2022-10-02T18:30:12.955Z,3.33
2022-10-02T18:32:51.950Z,4.03
2022-10-02T18:35:32.462Z,5.68
2022-10-02T18:38:05.160Z,4.68
2022-10-02T18:41:05.635Z,4.45
2022-10-02T18:43:41.636Z,2.75
2022-10-02T18:46:17.462Z,2.63
2022-10-02T18:49:08.739Z,1.45
2022-10-02T18:52:00.476Z,3.22
2022-10-02T18:54:42.516Z,3.37
2022-10-02T18:57:15.892Z,3.80
2022-10-02T19:00:08.148Z,3.37
2022-10-02T19:03:02.085Z,1.95
2022-10-02T19:05:39.425Z,4.20
2022-10-02T19:08:24.639Z,4.15
2022-10-02T19:10:57.292Z,3.72
2022-10-02T19:13:31.820Z,3.35
2022-10-02T19:16:17.803Z,3.83
2022-10-02T19:18:52.209Z,2.65
2022-10-02T19:21:25.779Z,2.88
2022-10-02T19:24:01.716Z,3.05
2022-10-02T19:26:37.727Z,3.45
2022-10-02T19:29:29.536Z,3.22
2022-10-02T19:32:08.145Z,2.80
2022-10-02T19:34:42.572Z,4.22
2022-10-02T19:37:17.452Z,2.88
2022-10-02T19:39:53.370Z,2.20
2022-10-02T19:42:28.292Z,2.67
2022-10-02T19:45:05.442Z,2.37
2022-10-02T19:47:42.845Z,1.95
2022-10-02T19:50:20.042Z,5.47
2022-10-02T19:53:00.043Z,2.67
2022-10-02T19:55:36.786Z,4.68
2022-10-02T19:58:15.798Z,5.13
2022-10-02T20:00:52.942Z,6.20
2022-10-02T20:03:26.089Z,8.25
2022-10-02T20:06:18.865Z,5.18
2022-10-02T20:08:57.836Z,5.28
2022-10-02T20:11:48.190Z,4.22
2022-10-02T20:14:24.162Z,2.00
2022-10-02T20:17:09.593Z,4.22
2022-10-02T20:19:53.109Z,5.05
2022-10-02T20:22:41.543Z,2.65
2022-10-02T20:25:28.400Z,3.90
2022-10-02T20:28:01.345Z,7.25
2022-10-02T20:30:41.746Z,2.47
2022-10-02T20:33:20.511Z,5.82
2022-10-02T20:35:53.762Z,5.43
2022-10-02T20:38:31.157Z,3.60
2022-10-02T20:41:07.631Z,2.35
2022-10-02T20:43:47.585Z,3.15
2022-10-02T20:46:25.841Z,7.40
2022-10-02T20:49:13.510Z,3.20
2022-10-02T20:51:50.491Z,5.25
2022-10-02T20:54:44.063Z,4.35
2022-10-02T20:57:16.586Z,3.37
2022-10-02T20:59:52.553Z,6.82
2022-10-02T21:02:44.862Z,3.13
2022-10-02T21:05:41.491Z,5.57
2022-10-02T21:08:19.833Z,3.33
2022-10-02T21:11:14.762Z,7.22
2022-10-02T21:13:53.830Z,6.78
2022-10-02T21:16:50.138Z,4.07
2022-10-02T21:19:33.327Z,4.30
2022-10-02T21:22:06.095Z,6.13
2022-10-02T21:24:41.530Z,6.10
2022-10-02T21:27:41.873Z,4.78
2022-10-02T21:30:14.424Z,3.70
2022-10-02T21:32:47.254Z,8.65
2022-10-02T21:35:34.869Z,11.93
2022-10-02T21:38:28.602Z,16.23
2022-10-02T21:41:06.997Z,12.80
2022-10-02T21:43:45.916Z,13.60
2022-10-02T21:46:22.335Z,8.85
2022-10-02T21:48:55.439Z,14.10
2022-10-02T21:51:28.101Z,19.63
2022-10-02T21:54:20.276Z,8.17
2022-10-02T21:57:02.784Z,5.63
2022-10-02T21:59:54.549Z,9.02
2022-10-02T22:02:33.013Z,7.78
2022-10-02T22:05:05.764Z,7.18
2022-10-02T22:07:38.277Z,12.43
2022-10-02T22:10:30.495Z,6.20
2022-10-02T22:13:13.905Z,4.15
2022-10-02T22:16:05.497Z,8.10
2022-10-02T22:18:58.457Z,4.60
2022-10-02T22:21:56.899Z,3.63
2022-10-02T22:24:29.727Z,2.95
2022-10-02T22:27:21.561Z,3.85
2022-10-02T22:29:55.120Z,5.63
2022-10-02T22:32:54.718Z,4.78
2022-10-02T22:35:45.579Z,4.05
2022-10-02T22:38:34.580Z,4.47
2022-10-02T22:41:07.701Z,4.15
2022-10-02T22:44:10.045Z,2.85
2022-10-02T22:47:01.396Z,5.97
2022-10-02T22:49:37.364Z,5.40
2022-10-02T22:52:22.087Z,4.83
2022-10-02T22:55:07.237Z,3.80
2022-10-02T22:57:44.671Z,4.05
2022-10-02T23:00:17.524Z,5.53
2022-10-02T23:02:59.268Z,4.53
2022-10-02T23:05:41.804Z,5.70
2022-10-02T23:08:14.622Z,9.27
2022-10-02T23:10:52.633Z,3.60
2022-10-02T23:13:28.477Z,3.47
2022-10-02T23:16:08.735Z,3.05
2022-10-02T23:18:41.291Z,4.03
2022-10-02T23:21:18.449Z,3.00
2022-10-02T23:23:56.269Z,5.40
2022-10-02T23:26:29.953Z,5.95
2022-10-02T23:29:25.428Z,2.55
2022-10-02T23:32:20.536Z,4.13
2022-10-02T23:35:05.219Z,5.18
2022-10-02T23:37:44.774Z,6.00
2022-10-02T23:40:17.359Z,4.85
2022-10-02T23:42:56.608Z,3.53
2022-10-02T23:45:50.475Z,6.13
2022-10-02T23:48:23.397Z,8.20
2022-10-02T23:51:08.268Z,3.42
2022-10-02T23:53:53.578Z,3.10
2022-10-02T23:56:41.398Z,3.22
2022-10-02T23:59:26.882Z,3.08
